Home > Products > Valid Products > TAF

000
FTUS42 KRAH 100539
TAFRWI
TAF
KRWI 100539Z 1006/1106 27007KT P6SM BKN080
     FM101700 26009G17KT P6SM SCT100=



000
FTUS42 KRAH 100539
TAFFAY
TAF
KFAY 100539Z 1006/1106 28010KT P6SM BKN070
     FM101700 26012G21KT P6SM BKN050=



000
FTUS42 KRAH 100539
TAFRWI
TAF
KRWI 100539Z 1006/1106 27007KT P6SM BKN080
     FM101700 26009G17KT P6SM SCT100=



000
FTUS42 KRAH 100539
TAFFAY
TAF
KFAY 100539Z 1006/1106 28010KT P6SM BKN070
     FM101700 26012G21KT P6SM BKN050=



000
FTUS42 KRAH 100539
TAFRDU
TAF
KRDU 100539Z 1006/1106 28009KT P6SM FEW070
     FM101700 27009G17KT P6SM BKN090=



000
FTUS42 KRAH 100539
TAFINT
TAF
KINT 100539Z 1006/1106 29010KT P6SM SCT060
     FM101700 28010G19KT P6SM BKN040=



000
FTUS42 KRAH 100539
TAFGSO
TAF
KGSO 100539Z 1006/1106 29011KT P6SM SCT060
     FM101700 28010G20KT P6SM BKN040=



000
FTUS42 KRAH 100539
TAFRWI
TAF
KRWI 100539Z 1006/1106 27007KT P6SM BKN080
     FM101700 26009G17KT P6SM SCT100=



000
FTUS42 KRAH 100539
TAFRDU
TAF
KRDU 100539Z 1006/1106 28009KT P6SM FEW070
     FM101700 27009G17KT P6SM BKN090=



000
FTUS42 KRAH 100539
TAFINT
TAF
KINT 100539Z 1006/1106 29010KT P6SM SCT060
     FM101700 28010G19KT P6SM BKN040=



000
FTUS42 KRAH 100539
TAFGSO
TAF
KGSO 100539Z 1006/1106 29011KT P6SM SCT060
     FM101700 28010G20KT P6SM BKN040=



000
FTUS42 KRAH 100539
TAFINT
TAF
KINT 100539Z 1006/1106 29010KT P6SM SCT060
     FM101700 28010G19KT P6SM BKN040=



000
FTUS42 KRAH 100539
TAFGSO
TAF
KGSO 100539Z 1006/1106 29011KT P6SM SCT060
     FM101700 28010G20KT P6SM BKN040=



000
FTUS42 KRAH 100539
TAFFAY
TAF
KFAY 100539Z 1006/1106 28010KT P6SM BKN070
     FM101700 26012G21KT P6SM BKN050=



000
FTUS42 KRAH 100539
TAFRDU
TAF
KRDU 100539Z 1006/1106 28009KT P6SM FEW070
     FM101700 27009G17KT P6SM BKN090=



000
FTUS42 KRAH 100409 AAB
TAFRDU
TAF AMD
KRDU 100409Z 1004/1024 28009KT P6SM FEW070
      TEMPO 1004/1006 28012G20KT
     FM101700 27009G17KT P6SM BKN090=



000
FTUS42 KRAH 100409 AAB
TAFRDU
TAF AMD
KRDU 100409Z 1004/1024 28009KT P6SM FEW070
      TEMPO 1004/1006 28012G20KT
     FM101700 27009G17KT P6SM BKN090=



000
FTUS42 KRAH 100409 AAB
TAFRDU
TAF AMD
KRDU 100409Z 1004/1024 28009KT P6SM FEW070
      TEMPO 1004/1006 28012G20KT
     FM101700 27009G17KT P6SM BKN090=



000
FTUS42 KRAH 100154 AAA
TAFFAY
TAF AMD
KFAY 100154Z 1002/1024 28010KT P6SM BKN070
      TEMPO 1002/1004 29012G20KT
     FM101700 26012G21KT P6SM BKN050=



000
FTUS42 KRAH 100154 AAA
TAFFAY
TAF AMD
KFAY 100154Z 1002/1024 28010KT P6SM BKN070
      TEMPO 1002/1004 29012G20KT
     FM101700 26012G21KT P6SM BKN050=



000
FTUS42 KRAH 100154 AAA
TAFFAY
TAF AMD
KFAY 100154Z 1002/1024 28010KT P6SM BKN070
      TEMPO 1002/1004 29012G20KT
     FM101700 26012G21KT P6SM BKN050=



000
FTUS42 KRAH 100153 AAA
TAFGSO
TAF AMD
KGSO 100153Z 1002/1024 29011KT P6SM SCT060
     FM101700 28010G20KT P6SM BKN040=



000
FTUS42 KRAH 100153 AAA
TAFINT
TAF AMD
KINT 100153Z 1002/1024 29010KT P6SM SCT060
     FM101700 28010G19KT P6SM BKN040=



000
FTUS42 KRAH 100153 AAA
TAFINT
TAF AMD
KINT 100153Z 1002/1024 29010KT P6SM SCT060
     FM101700 28010G19KT P6SM BKN040=



000
FTUS42 KRAH 100152 AAA
TAFRDU
TAF AMD
KRDU 100152Z 1002/1024 28006KT P6SM FEW050 BKN080
      TEMPO 1002/1004 27012G20KT
     FM101700 27009G17KT P6SM BKN090=



000
FTUS42 KRAH 100152 AAA
TAFRDU
TAF AMD
KRDU 100152Z 1002/1024 28006KT P6SM FEW050 BKN080
      TEMPO 1002/1004 27012G20KT
     FM101700 27009G17KT P6SM BKN090=



000
FTUS42 KRAH 092339
TAFRWI
TAF
KRWI 092339Z 1000/1024 27007KT P6SM BKN080
     FM101700 26009G17KT P6SM SCT100=



000
FTUS42 KRAH 092339
TAFINT
TAF
KINT 092339Z 1000/1024 29010G20KT P6SM SCT060 BKN100
     FM101000 29007KT P6SM BKN100
     FM101700 28010G19KT P6SM BKN040=



000
FTUS42 KRAH 092339
TAFFAY
TAF
KFAY 092339Z 1000/1024 27009KT P6SM BKN070
     FM101700 26012G21KT P6SM BKN050=



000
FTUS42 KRAH 092339
TAFRDU
TAF
KRDU 092339Z 1000/1024 28006KT P6SM FEW050 BKN090
     FM101700 27009G17KT P6SM BKN090=



000
FTUS42 KRAH 092339
TAFGSO
TAF
KGSO 092339Z 1000/1024 29010G20KT P6SM SCT060 BKN100
     FM101000 29008KT P6SM BKN100
     FM101700 28010G20KT P6SM BKN040=



000
FTUS42 KRAH 092126 AAA
TAFRWI
TAF AMD
KRWI 092126Z 0921/1018 27011G18KT P6SM SCT050 BKN250
      TEMPO 0921/0924 3SM -SHRASN BKN030
     FM100000 27006KT P6SM BKN100
     FM101700 26008G17KT P6SM SCT100=



000
FTUS42 KRAH 092125 AAA
TAFRDU
TAF AMD
KRDU 092125Z 0921/1018 27011G18KT P6SM SCT050 BKN250
      TEMPO 0921/0923 3SM -SHSN BKN050
     FM092300 28006KT P6SM BKN100
     FM101500 27008G17KT P6SM SCT100=



000
FTUS42 KRAH 091736 CCA
TAFRWI
TAF COR
KRWI 091736Z 0918/1018 27011G18KT P6SM SCT050 BKN250
      TEMPO 0918/0920 3SM -SHRA BKN030
     FM100000 27006KT P6SM BKN100
     FM101700 26008G17KT P6SM SCT100=



000
FTUS42 KRAH 091736 CCA
TAFRWI
TAF COR
KRWI 091736Z 0918/1018 27011G18KT P6SM SCT050 BKN250
      TEMPO 0918/0920 3SM -SHRA BKN030
     FM100000 27006KT P6SM BKN100
     FM101700 26008G17KT P6SM SCT100=



000
FTUS42 KRAH 091736 CCA
TAFRWI
TAF COR
KRWI 091736Z 0918/1018 27011G18KT P6SM SCT050 BKN250
      TEMPO 0918/0920 3SM -SHRA BKN030
     FM100000 27006KT P6SM BKN100
     FM101700 26008G17KT P6SM SCT100=



000
FTUS42 KRAH 091735
TAFINT
TAF
KINT 091735Z 0918/1018 29010G20KT P6SM SCT050 BKN250
     FM100000 30007KT P6SM BKN100
     FM101500 28008G17KT P6SM SCT100=



000
FTUS42 KRAH 091735
TAFFAY
TAF
KFAY 091735Z 0918/1018 26015G22KT P6SM BKN050
     FM092300 26009KT P6SM SCT050 BKN100
     FM101500 26011G18KT P6SM BKN250=



000
FTUS42 KRAH 091735
TAFINT
TAF
KINT 091735Z 0918/1018 29010G20KT P6SM SCT050 BKN250
     FM100000 30007KT P6SM BKN100
     FM101500 28008G17KT P6SM SCT100=



000
FTUS42 KRAH 091735
TAFGSO
TAF
KGSO 091735Z 0918/1018 29010G17KT P6SM SCT050 BKN250
     FM100000 30007KT P6SM BKN100
     FM101500 28008G17KT P6SM SCT100=



000
FTUS42 KRAH 091735
TAFFAY
TAF
KFAY 091735Z 0918/1018 26015G22KT P6SM BKN050
     FM092300 26009KT P6SM SCT050 BKN100
     FM101500 26011G18KT P6SM BKN250=



000
FTUS42 KRAH 091735
TAFRWI
TAF
KRWI 091735Z 0918/1018 27011G18KT P6SM SCT050 BKN250
     FM100000 27006KT P6SM BKN100
     FM101700 26008G17KT P6SM SCT100=



000
FTUS42 KRAH 091735
TAFRDU
TAF
KRDU 091735Z 0918/1018 27011G18KT P6SM SCT050 BKN250
     FM092300 28006KT P6SM BKN100
     FM101500 27008G17KT P6SM SCT100=



000
FTUS42 KRAH 091735
TAFINT
TAF
KINT 091735Z 0918/1018 29010G20KT P6SM SCT050 BKN250
     FM100000 30007KT P6SM BKN100
     FM101500 28008G17KT P6SM SCT100=



000
FTUS42 KRAH 091735
TAFGSO
TAF
KGSO 091735Z 0918/1018 29010G17KT P6SM SCT050 BKN250
     FM100000 30007KT P6SM BKN100
     FM101500 28008G17KT P6SM SCT100=



000
FTUS42 KRAH 091735
TAFFAY
TAF
KFAY 091735Z 0918/1018 26015G22KT P6SM BKN050
     FM092300 26009KT P6SM SCT050 BKN100
     FM101500 26011G18KT P6SM BKN250=



000
FTUS42 KRAH 091735
TAFGSO
TAF
KGSO 091735Z 0918/1018 29010G17KT P6SM SCT050 BKN250
     FM100000 30007KT P6SM BKN100
     FM101500 28008G17KT P6SM SCT100=



000
FTUS42 KRAH 091735
TAFRWI
TAF
KRWI 091735Z 0918/1018 27011G18KT P6SM SCT050 BKN250
     FM100000 27006KT P6SM BKN100
     FM101700 26008G17KT P6SM SCT100=



000
FTUS42 KRAH 091735
TAFRWI
TAF
KRWI 091735Z 0918/1018 27011G18KT P6SM SCT050 BKN250
     FM100000 27006KT P6SM BKN100
     FM101700 26008G17KT P6SM SCT100=



000
FTUS42 KRAH 091735
TAFRDU
TAF
KRDU 091735Z 0918/1018 27011G18KT P6SM SCT050 BKN250
     FM092300 28006KT P6SM BKN100
     FM101500 27008G17KT P6SM SCT100=



000
FTUS42 KRAH 091735
TAFRDU
TAF
KRDU 091735Z 0918/1018 27011G18KT P6SM SCT050 BKN250
     FM092300 28006KT P6SM BKN100
     FM101500 27008G17KT P6SM SCT100=



000
FTUS42 KRAH 091140
TAFFAY
TAF
KFAY 091140Z 0912/1012 26008KT P6SM SCT050 BKN250
     FM091500 26015G22KT P6SM BKN050=



000
FTUS42 KRAH 091140
TAFRDU
TAF
KRDU 091140Z 0912/1012 27006KT P6SM SCT050 BKN150
     FM091600 27011G18KT P6SM SCT050 BKN250=



000
FTUS42 KRAH 091140
TAFRWI
TAF
KRWI 091140Z 0912/1012 27006KT P6SM SCT050 BKN150
     FM091600 27011G18KT P6SM SCT050 BKN250=



000
FTUS42 KRAH 091140
TAFGSO
TAF
KGSO 091140Z 0912/1012 31005KT P6SM FEW060 BKN100
     FM091500 29010G17KT P6SM SCT050 BKN250=



000
FTUS42 KRAH 091140
TAFINT
TAF
KINT 091140Z 0912/1012 32005KT P6SM SCT060 BKN100
     FM091500 29010G17KT P6SM SCT050 BKN250=



000
FTUS42 KRAH 090541
TAFRDU
TAF
KRDU 090541Z 0906/1006 VRB03KT 2SM BR SCT001
      TEMPO 0906/0908 1/4SM FG OVC001
     FM091000 27006KT P6SM SCT050 BKN150
     FM091600 27011G18KT P6SM SCT050 BKN250=



000
FTUS42 KRAH 090541
TAFINT
TAF
KINT 090541Z 0906/1006 32005KT P6SM SCT060 BKN100
     FM091600 29010G17KT P6SM SCT050 BKN250=



000
FTUS42 KRAH 090541
TAFGSO
TAF
KGSO 090541Z 0906/1006 31005KT P6SM FEW060 BKN100
     FM091600 29010G17KT P6SM SCT050 BKN250=



000
FTUS42 KRAH 090541
TAFRWI
TAF
KRWI 090541Z 0906/1006 VRB03KT 2SM BR SCT001
      TEMPO 0906/0909 1/4SM FG OVC001
     FM091000 27006KT P6SM SCT050 BKN150
     FM091600 27011G18KT P6SM SCT050 BKN250=



000
FTUS42 KRAH 090541
TAFFAY
TAF
KFAY 090541Z 0906/1006 26008KT P6SM SCT050 BKN250
      TEMPO 0906/0909 3SM BR
     FM091300 26015G22KT P6SM BKN050=



000
FTUS42 KRAH 090541
TAFGSO
TAF
KGSO 090541Z 0906/1006 31005KT P6SM FEW060 BKN100
     FM091600 29010G17KT P6SM SCT050 BKN250=



000
FTUS42 KRAH 090541
TAFRWI
TAF
KRWI 090541Z 0906/1006 VRB03KT 2SM BR SCT001
      TEMPO 0906/0909 1/4SM FG OVC001
     FM091000 27006KT P6SM SCT050 BKN150
     FM091600 27011G18KT P6SM SCT050 BKN250=



000
FTUS42 KRAH 090541
TAFINT
TAF
KINT 090541Z 0906/1006 32005KT P6SM SCT060 BKN100
     FM091600 29010G17KT P6SM SCT050 BKN250=



000
FTUS42 KRAH 090541
TAFFAY
TAF
KFAY 090541Z 0906/1006 26008KT P6SM SCT050 BKN250
      TEMPO 0906/0909 3SM BR
     FM091300 26015G22KT P6SM BKN050=



000
FTUS42 KRAH 090541
TAFGSO
TAF
KGSO 090541Z 0906/1006 31005KT P6SM FEW060 BKN100
     FM091600 29010G17KT P6SM SCT050 BKN250=



000
FTUS42 KRAH 090541
TAFRWI
TAF
KRWI 090541Z 0906/1006 VRB03KT 2SM BR SCT001
      TEMPO 0906/0909 1/4SM FG OVC001
     FM091000 27006KT P6SM SCT050 BKN150
     FM091600 27011G18KT P6SM SCT050 BKN250=



000
FTUS42 KRAH 090541
TAFINT
TAF
KINT 090541Z 0906/1006 32005KT P6SM SCT060 BKN100
     FM091600 29010G17KT P6SM SCT050 BKN250=



000
FTUS42 KRAH 090541
TAFFAY
TAF
KFAY 090541Z 0906/1006 26008KT P6SM SCT050 BKN250
      TEMPO 0906/0909 3SM BR
     FM091300 26015G22KT P6SM BKN050=



000
FTUS42 KRAH 090541
TAFRDU
TAF
KRDU 090541Z 0906/1006 VRB03KT 2SM BR SCT001
      TEMPO 0906/0908 1/4SM FG OVC001
     FM091000 27006KT P6SM SCT050 BKN150
     FM091600 27011G18KT P6SM SCT050 BKN250=



000
FTUS42 KRAH 090541
TAFRDU
TAF
KRDU 090541Z 0906/1006 VRB03KT 2SM BR SCT001
      TEMPO 0906/0908 1/4SM FG OVC001
     FM091000 27006KT P6SM SCT050 BKN150
     FM091600 27011G18KT P6SM SCT050 BKN250=



000
FTUS42 KRAH 090428 AAC
TAFRDU
TAF AMD
KRDU 090428Z 0904/0924 VRB02KT P6SM FEW001 SCT100 BKN150
      TEMPO 0904/0907 1/4SM FG OVC001
     FM090700 27006KT P6SM SCT050 BKN150
     FM091600 27011G18KT P6SM SCT050 BKN250=



000
FTUS42 KRAH 090418 AAB
TAFRDU
TAF AMD
KRDU 090418Z 0904/0924 VRB02KT P6SM FEW001 SCT100 BKN150
      TEMPO 0904/0907 1SM BR SCT001
     FM090700 27006KT P6SM SCT050 BKN150
     FM091600 27011G18KT P6SM SCT050 BKN250=



000
FTUS42 KRAH 090359 AAA
TAFRWI
TAF AMD
KRWI 090359Z 0904/0924 20008KT 5SM BR SCT150
      TEMPO 0904/0907 1/2SM FG OVC002
     FM090700 27006KT P6SM SCT050 BKN100
     FM091600 26011G18KT P6SM BKN050=



000
FTUS42 KRAH 090219 AAA
TAFFAY
TAF AMD
KFAY 090219Z 0902/0924 26008KT P6SM SCT050 BKN250
      TEMPO 0903/0907 5SM BR
     FM091300 26015G22KT P6SM BKN050=



000
FTUS42 KRAH 090219 AAA
TAFFAY
TAF AMD
KFAY 090219Z 0902/0924 26008KT P6SM SCT050 BKN250
      TEMPO 0903/0907 5SM BR
     FM091300 26015G22KT P6SM BKN050=



000
FTUS42 KRAH 090219 AAA
TAFFAY
TAF AMD
KFAY 090219Z 0902/0924 26008KT P6SM SCT050 BKN250
      TEMPO 0903/0907 5SM BR
     FM091300 26015G22KT P6SM BKN050=



000
FTUS42 KRAH 090149 AAA
TAFRDU
TAF AMD
KRDU 090149Z 0902/0924 VRB05KT P6SM SCT040 BKN150
     FM090500 27006KT P6SM SCT050 BKN150
     FM091600 27011G18KT P6SM SCT050 BKN250=



000
FTUS42 KRAH 090149 AAA
TAFGSO
TAF AMD
KGSO 090149Z 0902/0924 31005KT P6SM FEW060 BKN100
     FM091600 29010G17KT P6SM SCT050 BKN250=



000
FTUS42 KRAH 082339
TAFRWI
TAF
KRWI 082339Z 0900/0924 20008KT P6SM BKN070
      TEMPO 0900/0903 25015G25KT 4SM -SHRA BR SCT020 BKN025 OVC035
     FM090500 27006KT P6SM SCT050 BKN100
     FM091600 26011G18KT P6SM BKN050=



000
FTUS42 KRAH 082339
TAFFAY
TAF
KFAY 082339Z 0900/0924 26008KT P6SM SCT050 BKN250
      TEMPO 0900/0901 25010G20KT 3SM -SHRA BR FEW015 BKN025 OVC035
     FM091300 26015G22KT P6SM BKN050=



000
FTUS42 KRAH 082339
TAFRDU
TAF
KRDU 082339Z 0900/0924 24008KT P6SM BKN050 OVC250
      TEMPO 0900/0901 25010G20KT 4SM -SHRA BR FEW015 BKN025 OVC040
     FM090500 27006KT P6SM SCT050 BKN100
     FM091600 27011G18KT P6SM SCT050 BKN250=



000
FTUS42 KRAH 082339
TAFGSO
TAF
KGSO 082339Z 0900/0924 32005KT P6SM SCT060 BKN100
     FM091600 29010G17KT P6SM SCT050 BKN250=



000
FTUS42 KRAH 082339
TAFINT
TAF
KINT 082339Z 0900/0924 32005KT P6SM SCT060 BKN100
     FM091600 29010G17KT P6SM SCT050 BKN250=



000
FTUS42 KRAH 082339
TAFGSO
TAF
KGSO 082339Z 0900/0924 32005KT P6SM SCT060 BKN100
     FM091600 29010G17KT P6SM SCT050 BKN250=



000
FTUS42 KRAH 082339
TAFRWI
TAF
KRWI 082339Z 0900/0924 20008KT P6SM BKN070
      TEMPO 0900/0903 25015G25KT 4SM -SHRA BR SCT020 BKN025 OVC035
     FM090500 27006KT P6SM SCT050 BKN100
     FM091600 26011G18KT P6SM BKN050=



000
FTUS42 KRAH 082339
TAFFAY
TAF
KFAY 082339Z 0900/0924 26008KT P6SM SCT050 BKN250
      TEMPO 0900/0901 25010G20KT 3SM -SHRA BR FEW015 BKN025 OVC035
     FM091300 26015G22KT P6SM BKN050=



000
FTUS42 KRAH 082339
TAFINT
TAF
KINT 082339Z 0900/0924 32005KT P6SM SCT060 BKN100
     FM091600 29010G17KT P6SM SCT050 BKN250=



000
FTUS42 KRAH 082339
TAFGSO
TAF
KGSO 082339Z 0900/0924 32005KT P6SM SCT060 BKN100
     FM091600 29010G17KT P6SM SCT050 BKN250=



000
FTUS42 KRAH 082339
TAFRDU
TAF
KRDU 082339Z 0900/0924 24008KT P6SM BKN050 OVC250
      TEMPO 0900/0901 25010G20KT 4SM -SHRA BR FEW015 BKN025 OVC040
     FM090500 27006KT P6SM SCT050 BKN100
     FM091600 27011G18KT P6SM SCT050 BKN250=



000
FTUS42 KRAH 082339
TAFRWI
TAF
KRWI 082339Z 0900/0924 20008KT P6SM BKN070
      TEMPO 0900/0903 25015G25KT 4SM -SHRA BR SCT020 BKN025 OVC035
     FM090500 27006KT P6SM SCT050 BKN100
     FM091600 26011G18KT P6SM BKN050=



000
FTUS42 KRAH 082339
TAFINT
TAF
KINT 082339Z 0900/0924 32005KT P6SM SCT060 BKN100
     FM091600 29010G17KT P6SM SCT050 BKN250=



000
FTUS42 KRAH 082339
TAFFAY
TAF
KFAY 082339Z 0900/0924 26008KT P6SM SCT050 BKN250
      TEMPO 0900/0901 25010G20KT 3SM -SHRA BR FEW015 BKN025 OVC035
     FM091300 26015G22KT P6SM BKN050=



000
FTUS42 KRAH 082339
TAFRDU
TAF
KRDU 082339Z 0900/0924 24008KT P6SM BKN050 OVC250
      TEMPO 0900/0901 25010G20KT 4SM -SHRA BR FEW015 BKN025 OVC040
     FM090500 27006KT P6SM SCT050 BKN100
     FM091600 27011G18KT P6SM SCT050 BKN250=



000
FTUS42 KRAH 082214 AAC
TAFFAY
TAF AMD
KFAY 082214Z 0822/0918 19008KT P6SM SCT070 BKN100
      TEMPO 0822/0901 25020G35KT 3SM -SHRA BR OVC025
     FM090800 26009KT P6SM BKN100
     FM091300 26015G22KT P6SM SCT050 BKN100=



000
FTUS42 KRAH 082214 AAC
TAFFAY
TAF AMD
KFAY 082214Z 0822/0918 19008KT P6SM SCT070 BKN100
      TEMPO 0822/0901 25020G35KT 3SM -SHRA BR OVC025
     FM090800 26009KT P6SM BKN100
     FM091300 26015G22KT P6SM SCT050 BKN100=



000
FTUS42 KRAH 082156 AAB
TAFRDU
TAF AMD
KRDU 082156Z 0822/0918 23008KT P6SM FEW060 BKN070 OVC250
      TEMPO 0822/0901 25020G32KT 4SM -SHRA BR OVC025
     FM090500 27006KT P6SM BKN050
     FM091600 26011G18KT P6SM BKN050=



000
FTUS42 KRAH 082122 AAB
TAFFAY
TAF AMD
KFAY 082122Z 0821/0918 19008KT P6SM SCT070 BKN100
      TEMPO 0822/0902 25020G30KT 4SM -SHRA BR OVC020
     FM090800 26009KT P6SM BKN100
     FM091300 26015G22KT P6SM SCT050 BKN100=



000
FTUS42 KRAH 082049 AAA
TAFFAY
TAF AMD
KFAY 082049Z 0821/0918 19008KT P6SM SCT060
      TEMPO 0822/0902 25015G26KT 4SM -SHRA BR OVC020
     FM090800 26009KT P6SM BKN100
     FM091300 26015G22KT P6SM SCT050 BKN100=



000
FTUS42 KRAH 082049 AAA
TAFFAY
TAF AMD
KFAY 082049Z 0821/0918 19008KT P6SM SCT060
      TEMPO 0822/0902 25015G26KT 4SM -SHRA BR OVC020
     FM090800 26009KT P6SM BKN100
     FM091300 26015G22KT P6SM SCT050 BKN100=



000
FTUS42 KRAH 082049 AAA
TAFFAY
TAF AMD
KFAY 082049Z 0821/0918 19008KT P6SM SCT060
      TEMPO 0822/0902 25015G26KT 4SM -SHRA BR OVC020
     FM090800 26009KT P6SM BKN100
     FM091300 26015G22KT P6SM SCT050 BKN100=



000
FTUS42 KRAH 082048 AAA
TAFRDU
TAF AMD
KRDU 082048Z 0821/0918 20008KT P6SM BKN070
      TEMPO 0822/0902 25015G26KT 4SM -SHRA BR OVC020
     FM090500 27006KT P6SM BKN050
     FM091600 26011G18KT P6SM BKN050=



000
FTUS42 KRAH 081727
TAFRWI
TAF
KRWI 081727Z 0818/0918 20008KT P6SM BKN070
      TEMPO 0823/0903 4SM -SHRA BR OVC025
     FM090600 27006KT P6SM BKN060
     FM091600 26011G18KT P6SM SCT050=



000
FTUS42 KRAH 081727
TAFGSO
TAF
KGSO 081727Z 0818/0918 20008KT P6SM OVC070
      TEMPO 0820/0824 4SM -SHRA BR OVC025
     FM090200 27006KT P6SM BKN060
     FM091600 28008G16KT P6SM SCT050 BKN250=



000
FTUS42 KRAH 081727
TAFINT
TAF
KINT 081727Z 0818/0918 20008KT P6SM OVC050
      TEMPO 0819/0823 4SM -SHRA BR OVC020
     FM090200 27006KT P6SM BKN060
     FM091600 28008G16KT P6SM SCT050 BKN250=



000
FTUS42 KRAH 081727
TAFRDU
TAF
KRDU 081727Z 0818/0918 20008KT P6SM BKN070
      TEMPO 0822/0902 4SM -SHRA BR OVC020
     FM090500 27006KT P6SM BKN050
     FM091600 26011G18KT P6SM BKN050=



000
FTUS42 KRAH 081727
TAFFAY
TAF
KFAY 081727Z 0818/0918 19008KT P6SM SCT060
     FM090800 26009KT P6SM BKN100
     FM091300 26015G22KT P6SM SCT050 BKN100=



000
FTUS42 KRAH 081727
TAFRWI
TAF
KRWI 081727Z 0818/0918 20008KT P6SM BKN070
      TEMPO 0823/0903 4SM -SHRA BR OVC025
     FM090600 27006KT P6SM BKN060
     FM091600 26011G18KT P6SM SCT050=



000
FTUS42 KRAH 081143
TAFGSO
TAF
KGSO 081143Z 0812/0912 15005KT P6SM BKN250
     FM081800 20008KT P6SM OVC070
      TEMPO 0820/0824 4SM -SHRA BR OVC025
     FM090200 27006KT P6SM BKN060=



000
FTUS42 KRAH 081143
TAFINT
TAF
KINT 081143Z 0812/0912 14005KT P6SM BKN250
     FM081800 20008KT P6SM OVC050
      TEMPO 0819/0823 4SM -SHRA BR OVC025
     FM090200 27006KT P6SM BKN060=



000
FTUS42 KRAH 081143
TAFRDU
TAF
KRDU 081143Z 0812/0912 20005KT P6SM BKN250
     FM081800 20008KT P6SM OVC070
      TEMPO 0822/0902 4SM -SHRA BR OVC025
     FM090500 27006KT P6SM BKN050=



000
FTUS42 KRAH 081143
TAFFAY
TAF
KFAY 081143Z 0812/0912 19008KT P6SM SCT250
     FM082100 23011G20KT P6SM BKN070
     FM090800 26010G17KT P6SM BKN100=



000
FTUS42 KRAH 081143
TAFRWI
TAF
KRWI 081143Z 0812/0912 19006KT P6SM BKN250
     FM081800 20008KT P6SM BKN070
      TEMPO 0823/0903 4SM -SHRA BR OVC025
     FM090600 27006KT P6SM BKN060=



000
FTUS42 KRAH 081143
TAFRDU
TAF
KRDU 081143Z 0812/0912 20005KT P6SM BKN250
     FM081800 20008KT P6SM OVC070
      TEMPO 0822/0902 4SM -SHRA BR OVC025
     FM090500 27006KT P6SM BKN050=



000
FTUS42 KRAH 081143
TAFFAY
TAF
KFAY 081143Z 0812/0912 19008KT P6SM SCT250
     FM082100 23011G20KT P6SM BKN070
     FM090800 26010G17KT P6SM BKN100=



000
FTUS42 KRAH 081143
TAFINT
TAF
KINT 081143Z 0812/0912 14005KT P6SM BKN250
     FM081800 20008KT P6SM OVC050
      TEMPO 0819/0823 4SM -SHRA BR OVC025
     FM090200 27006KT P6SM BKN060=



000
FTUS42 KRAH 081143
TAFGSO
TAF
KGSO 081143Z 0812/0912 15005KT P6SM BKN250
     FM081800 20008KT P6SM OVC070
      TEMPO 0820/0824 4SM -SHRA BR OVC025
     FM090200 27006KT P6SM BKN060=



000
FTUS42 KRAH 081143
TAFRWI
TAF
KRWI 081143Z 0812/0912 19006KT P6SM BKN250
     FM081800 20008KT P6SM BKN070
      TEMPO 0823/0903 4SM -SHRA BR OVC025
     FM090600 27006KT P6SM BKN060=



000
FTUS42 KRAH 081143
TAFRDU
TAF
KRDU 081143Z 0812/0912 20005KT P6SM BKN250
     FM081800 20008KT P6SM OVC070
      TEMPO 0822/0902 4SM -SHRA BR OVC025
     FM090500 27006KT P6SM BKN050=



000
FTUS42 KRAH 081143
TAFRWI
TAF
KRWI 081143Z 0812/0912 19006KT P6SM BKN250
     FM081800 20008KT P6SM BKN070
      TEMPO 0823/0903 4SM -SHRA BR OVC025
     FM090600 27006KT P6SM BKN060=



000
FTUS42 KRAH 081143
TAFGSO
TAF
KGSO 081143Z 0812/0912 15005KT P6SM BKN250
     FM081800 20008KT P6SM OVC070
      TEMPO 0820/0824 4SM -SHRA BR OVC025
     FM090200 27006KT P6SM BKN060=



000
FTUS42 KRAH 081143
TAFINT
TAF
KINT 081143Z 0812/0912 14005KT P6SM BKN250
     FM081800 20008KT P6SM OVC050
      TEMPO 0819/0823 4SM -SHRA BR OVC025
     FM090200 27006KT P6SM BKN060=



000
FTUS42 KRAH 081143
TAFFAY
TAF
KFAY 081143Z 0812/0912 19008KT P6SM SCT250
     FM082100 23011G20KT P6SM BKN070
     FM090800 26010G17KT P6SM BKN100=



000
FTUS42 KRAH 080837 AAA
TAFGSO
TAF AMD
KGSO 080837Z 0809/0906 VRB05KT P6SM BKN250
     FM081400 16005KT P6SM OVC080
     FM081800 19011KT P6SM VCSH BKN050
     FM090100 VRB05KT P6SM BKN080=



000
FTUS42 KRAH 080836 AAA
TAFRDU
TAF AMD
KRDU 080836Z 0809/0906 VRB05KT P6SM BKN250
     FM081500 21010G18KT P6SM BKN080
     FM090100 VRB05KT P6SM BKN100=



000
FTUS42 KRAH 080835 AAA
TAFFAY
TAF AMD
KFAY 080835Z 0809/0906 29009KT P6SM SCT250
     FM081800 21010G20KT P6SM VCSH SCT040 BKN080=



000
FTUS42 KRAH 080835 AAA
TAFFAY
TAF AMD
KFAY 080835Z 0809/0906 29009KT P6SM SCT250
     FM081800 21010G20KT P6SM VCSH SCT040 BKN080=



000
FTUS42 KRAH 080835 AAA
TAFFAY
TAF AMD
KFAY 080835Z 0809/0906 29009KT P6SM SCT250
     FM081800 21010G20KT P6SM VCSH SCT040 BKN080=



000
FTUS42 KRAH 080537
TAFRDU
TAF
KRDU 080537Z 0806/0906 VRB05KT P6SM BKN250
     FM081700 21010G18KT P6SM BKN080
     FM090100 VRB05KT P6SM BKN100=



000
FTUS42 KRAH 080537
TAFFAY
TAF
KFAY 080537Z 0806/0906 34010G18KT P6SM SCT100 BKN150 OVC250
     FM080800 30006KT P6SM SCT250
     FM081800 21010G20KT P6SM VCSH SCT040 BKN080=



000
FTUS42 KRAH 080537
TAFRDU
TAF
KRDU 080537Z 0806/0906 VRB05KT P6SM BKN250
     FM081700 21010G18KT P6SM BKN080
     FM090100 VRB05KT P6SM BKN100=



000
FTUS42 KRAH 080537
TAFINT
TAF
KINT 080537Z 0806/0906 VRB05KT P6SM BKN250
     FM081500 13005KT P6SM OVC100
     FM081800 20010G20KT P6SM OVC050
     FM090100 VRB05KT P6SM BKN080=



000
FTUS42 KRAH 080537
TAFRWI
TAF
KRWI 080537Z 0806/0906 35012G22KT P6SM SCT100 BKN120 OVC180
     FM080800 32006KT P6SM SCT250
     FM081800 21009KT P6SM SCT060 BKN100=



000
FTUS42 KRAH 080537
TAFRWI
TAF
KRWI 080537Z 0806/0906 35012G22KT P6SM SCT100 BKN120 OVC180
     FM080800 32006KT P6SM SCT250
     FM081800 21009KT P6SM SCT060 BKN100=



000
FTUS42 KRAH 080537
TAFGSO
TAF
KGSO 080537Z 0806/0906 VRB05KT P6SM BKN250
     FM081400 16005KT P6SM OVC080
     FM081800 20010G20KT P6SM VCSH BKN050
     FM090100 VRB05KT P6SM BKN080=



000
FTUS42 KRAH 080537
TAFINT
TAF
KINT 080537Z 0806/0906 VRB05KT P6SM BKN250
     FM081500 13005KT P6SM OVC100
     FM081800 20010G20KT P6SM OVC050
     FM090100 VRB05KT P6SM BKN080=



000
FTUS42 KRAH 080537
TAFRDU
TAF
KRDU 080537Z 0806/0906 VRB05KT P6SM BKN250
     FM081700 21010G18KT P6SM BKN080
     FM090100 VRB05KT P6SM BKN100=



000
FTUS42 KRAH 080537
TAFGSO
TAF
KGSO 080537Z 0806/0906 VRB05KT P6SM BKN250
     FM081400 16005KT P6SM OVC080
     FM081800 20010G20KT P6SM VCSH BKN050
     FM090100 VRB05KT P6SM BKN080=



000
FTUS42 KRAH 080537
TAFFAY
TAF
KFAY 080537Z 0806/0906 34010G18KT P6SM SCT100 BKN150 OVC250
     FM080800 30006KT P6SM SCT250
     FM081800 21010G20KT P6SM VCSH SCT040 BKN080=



000
FTUS42 KRAH 080537
TAFRWI
TAF
KRWI 080537Z 0806/0906 35012G22KT P6SM SCT100 BKN120 OVC180
     FM080800 32006KT P6SM SCT250
     FM081800 21009KT P6SM SCT060 BKN100=



000
FTUS42 KRAH 080537
TAFGSO
TAF
KGSO 080537Z 0806/0906 VRB05KT P6SM BKN250
     FM081400 16005KT P6SM OVC080
     FM081800 20010G20KT P6SM VCSH BKN050
     FM090100 VRB05KT P6SM BKN080=



000
FTUS42 KRAH 080537
TAFFAY
TAF
KFAY 080537Z 0806/0906 34010G18KT P6SM SCT100 BKN150 OVC250
     FM080800 30006KT P6SM SCT250
     FM081800 21010G20KT P6SM VCSH SCT040 BKN080=



000
FTUS42 KRAH 080537
TAFINT
TAF
KINT 080537Z 0806/0906 VRB05KT P6SM BKN250
     FM081500 13005KT P6SM OVC100
     FM081800 20010G20KT P6SM OVC050
     FM090100 VRB05KT P6SM BKN080=



000
FTUS42 KRAH 080144 AAA
TAFRDU
TAF AMD
KRDU 080144Z 0802/0824 VRB05KT P6SM BKN250
     FM081700 19010G18KT P6SM VCSH SCT050 BKN080=



000
FTUS42 KRAH 080144 AAA
TAFGSO
TAF AMD
KGSO 080144Z 0802/0824 VRB04KT P6SM SCT200 BKN250
     FM081400 16005KT P6SM OVC100
     FM081800 20010G20KT P6SM VCSH SCT020 BKN040=



000
FTUS42 KRAH 072323
TAFRDU
TAF
KRDU 072323Z 0800/0824 02008G16KT P6SM FEW120 BKN200
     FM080600 VRB04KT P6SM SCT250
     FM081700 19010G18KT P6SM VCSH SCT050 BKN080=



000
FTUS42 KRAH 072323
TAFINT
TAF
KINT 072323Z 0800/0824 03004KT P6SM FEW160 BKN250
     FM081400 16005KT P6SM OVC100
     FM081800 20010G20KT P6SM VCSH SCT020 BKN040=



000
FTUS42 KRAH 072323
TAFFAY
TAF
KFAY 072323Z 0800/0824 34010G18KT P6SM SCT100 BKN150 OVC250
     FM080800 30006KT P6SM SCT250
     FM081800 21010G20KT P6SM VCSH SCT040 BKN080=



000
FTUS42 KRAH 072323
TAFRWI
TAF
KRWI 072323Z 0800/0824 35012G22KT P6SM SCT100 BKN120 OVC180
     FM080800 32006KT P6SM SCT250
     FM081800 21009KT P6SM SCT060 BKN100=



000
FTUS42 KRAH 072323
TAFGSO
TAF
KGSO 072323Z 0800/0824 36005KT P6SM FEW160 BKN250
     FM081400 16005KT P6SM OVC100
     FM081800 20010G20KT P6SM VCSH SCT020 BKN040=



000
FTUS42 KRAH 072323
TAFFAY
TAF
KFAY 072323Z 0800/0824 34010G18KT P6SM SCT100 BKN150 OVC250
     FM080800 30006KT P6SM SCT250
     FM081800 21010G20KT P6SM VCSH SCT040 BKN080=



000
FTUS42 KRAH 072323
TAFRWI
TAF
KRWI 072323Z 0800/0824 35012G22KT P6SM SCT100 BKN120 OVC180
     FM080800 32006KT P6SM SCT250
     FM081800 21009KT P6SM SCT060 BKN100=



000
FTUS42 KRAH 072323
TAFRDU
TAF
KRDU 072323Z 0800/0824 02008G16KT P6SM FEW120 BKN200
     FM080600 VRB04KT P6SM SCT250
     FM081700 19010G18KT P6SM VCSH SCT050 BKN080=



000
FTUS42 KRAH 072323
TAFGSO
TAF
KGSO 072323Z 0800/0824 36005KT P6SM FEW160 BKN250
     FM081400 16005KT P6SM OVC100
     FM081800 20010G20KT P6SM VCSH SCT020 BKN040=



000
FTUS42 KRAH 072323
TAFINT
TAF
KINT 072323Z 0800/0824 03004KT P6SM FEW160 BKN250
     FM081400 16005KT P6SM OVC100
     FM081800 20010G20KT P6SM VCSH SCT020 BKN040=



000
FTUS42 KRAH 071733
TAFFAY
TAF
KFAY 071733Z 0718/0818 01015G23KT 6SM -RAPLSN SCT008 OVC025
     FM072100 36016G22KT P6SM OVC100
     FM080000 35010KT P6SM SCT250
     FM081400 20009G18KT P6SM SCT250=



000
FTUS42 KRAH 071733
TAFGSO
TAF
KGSO 071733Z 0718/0818 03008KT P6SM SCT100 BKN250
     FM072100 36009KT P6SM BKN200
     FM081700 20010G20KT P6SM BKN050=



000
FTUS42 KRAH 071733
TAFRWI
TAF
KRWI 071733Z 0718/0818 36010KT P6SM -RAPL OVC060
     FM072200 35014G21KT P6SM OVC060
     FM080100 34011KT P6SM OVC250
     FM081200 VRB03KT P6SM FEW250=



000
FTUS42 KRAH 071733
TAFRDU
TAF
KRDU 071733Z 0718/0818 02009G20KT P6SM SCT040 BKN080
     FM072200 36007KT P6SM BKN250
     FM081700 19010G18KT P6SM SCT050=



000
FTUS42 KRAH 071733
TAFINT
TAF
KINT 071733Z 0718/0818 36010KT P6SM SCT100 BKN250
     FM072000 36006KT P6SM BKN200
     FM081700 20010G20KT P6SM BKN050=



000
FTUS42 KRAH 071120
TAFFAY
TAF
KFAY 071120Z 0712/0812 02012G22KT 5SM -RA BR OVC040
     FM071500 01015G23KT P6SM SCT008 OVC025
     FM072100 36016G22KT P6SM OVC100
     FM080000 35010G20KT P6SM BKN250=



000
FTUS42 KRAH 071120
TAFRDU
TAF
KRDU 071120Z 0712/0812 03010G18KT P6SM OVC090
     FM071500 02009G20KT P6SM SCT040 BKN080
     FM072200 36007KT P6SM BKN250=



000
FTUS42 KRAH 071120
TAFRWI
TAF
KRWI 071120Z 0712/0812 01011KT 6SM -RA BR OVC050
     FM071400 01015G22KT 3SM -RA BR OVC040
     FM072200 35014G21KT P6SM OVC060
     FM080100 34012G18KT P6SM OVC250=



000
FTUS42 KRAH 071120
TAFGSO
TAF
KGSO 071120Z 0712/0812 03011G20KT P6SM SCT100 BKN250
     FM072100 36007KT P6SM BKN200=



000
FTUS42 KRAH 071120
TAFINT
TAF
KINT 071120Z 0712/0812 36010KT P6SM SCT100 BKN250
     FM072000 36006KT P6SM BKN200=



000
FTUS42 KRAH 071120
TAFRDU
TAF
KRDU 071120Z 0712/0812 03010G18KT P6SM OVC090
     FM071500 02009G20KT P6SM SCT040 BKN080
     FM072200 36007KT P6SM BKN250=



000
FTUS42 KRAH 071120
TAFFAY
TAF
KFAY 071120Z 0712/0812 02012G22KT 5SM -RA BR OVC040
     FM071500 01015G23KT P6SM SCT008 OVC025
     FM072100 36016G22KT P6SM OVC100
     FM080000 35010G20KT P6SM BKN250=



000
FTUS42 KRAH 071120
TAFRWI
TAF
KRWI 071120Z 0712/0812 01011KT 6SM -RA BR OVC050
     FM071400 01015G22KT 3SM -RA BR OVC040
     FM072200 35014G21KT P6SM OVC060
     FM080100 34012G18KT P6SM OVC250=



000
FTUS42 KRAH 071120
TAFINT
TAF
KINT 071120Z 0712/0812 36010KT P6SM SCT100 BKN250
     FM072000 36006KT P6SM BKN200=



000
FTUS42 KRAH 071120
TAFGSO
TAF
KGSO 071120Z 0712/0812 03011G20KT P6SM SCT100 BKN250
     FM072100 36007KT P6SM BKN200=



    US Dept of Commerce
    National Oceanic and Atmospheric Administration
    National Weather Service
    1325 East West Highway
    Silver Spring, MD 20910
    Page Author: NWS Internet Services Team
Disclaimer
Information Quality
Credits
Glossary
Privacy Policy
Freedom of Information Act (FOIA)
About Us
Career Opportunities